Time;durP1;ratioP1;P1;durP2;ratioP2;P2;SDS_P1;SDS_P2;PMS_P1;PMS_P2;Temp;Humidity;BMP_temperature;BMP_pressure;BME280_temperature;BME280_humidity;BME280_pressure;Samples;Min_cycle;Max_cycle;Signal;HPM_P1;HPM_P2
2023/07/31 00:01:44;;;;;;;8.53;2.83;;;17.20;99.90;;;;;;5091066;28;20169;-69
2023/07/31 00:04:09;;;;;;;5.47;3.03;;;17.20;99.90;;;;;;5090997;28;20561;-69
2023/07/31 00:06:35;;;;;;;7.53;2.60;;;17.20;99.90;;;;;;5090344;28;20176;-69
2023/07/31 00:09:00;;;;;;;3.00;2.43;;;17.20;99.90;;;;;;5091033;28;20553;-69
2023/07/31 00:11:26;;;;;;;5.47;3.67;;;17.30;99.90;;;;;;5091298;28;20166;-69
2023/07/31 00:13:53;;;;;;;4.17;3.03;;;17.30;99.90;;;;;;5092360;28;20197;-69
2023/07/31 00:16:19;;;;;;;7.00;3.30;;;17.30;99.90;;;;;;5090712;28;20181;-70
2023/07/31 00:18:44;;;;;;;5.23;3.27;;;17.30;99.90;;;;;;5092297;28;20456;-69
2023/07/31 00:21:10;;;;;;;5.80;3.13;;;17.30;99.90;;;;;;5083375;28;20536;-70
2023/07/31 00:23:35;;;;;;;7.87;3.30;;;17.30;99.90;;;;;;5081357;28;20658;-70
2023/07/31 00:26:01;;;;;;;6.17;2.63;;;17.30;99.90;;;;;;5090724;28;20166;-69
2023/07/31 00:28:28;;;;;;;4.80;2.70;;;17.30;99.90;;;;;;5092208;28;20170;-70
2023/07/31 00:30:54;;;;;;;4.67;2.30;;;17.40;99.90;;;;;;5084855;28;20197;-70
2023/07/31 00:33:19;;;;;;;4.87;2.40;;;17.40;99.90;;;;;;5091611;28;20473;-69
2023/07/31 00:35:45;;;;;;;8.23;3.17;;;17.40;99.90;;;;;;5091765;28;20205;-69
2023/07/31 00:38:10;;;;;;;3.43;2.67;;;17.40;99.90;;;;;;5092284;28;20193;-69
2023/07/31 00:40:37;;;;;;;4.70;2.60;;;17.40;99.90;;;;;;5092080;28;20668;-70
2023/07/31 00:43:03;;;;;;;4.10;2.60;;;17.40;99.90;;;;;;5090328;28;20208;-69
2023/07/31 00:45:29;;;;;;;4.27;2.23;;;17.30;99.90;;;;;;5089108;28;20492;-69
2023/07/31 00:47:54;;;;;;;8.40;2.30;;;17.40;99.90;;;;;;5090778;28;20404;-70
2023/07/31 00:50:21;;;;;;;3.17;2.40;;;17.40;99.90;;;;;;5091970;28;20186;-70
2023/07/31 00:52:47;;;;;;;8.03;3.00;;;17.40;99.90;;;;;;5092009;28;20169;-70
2023/07/31 00:55:12;;;;;;;5.40;2.43;;;17.50;99.90;;;;;;5090276;28;20407;-70
2023/07/31 00:57:41;;;;;;;4.97;2.67;;;17.50;99.90;;;;;;5084027;28;20241;-70
2023/07/31 01:00:07;;;;;;;5.53;2.63;;;17.50;99.90;;;;;;5092447;28;20189;-70
2023/07/31 01:02:33;;;;;;;5.07;2.80;;;17.50;99.90;;;;;;5091226;28;20464;-69
2023/07/31 01:04:58;;;;;;;7.80;3.10;;;17.50;99.90;;;;;;5082912;28;20427;-68
2023/07/31 01:07:30;;;;;;;7.90;2.70;;;17.50;99.90;;;;;;5091329;28;20189;-68
2023/07/31 01:10:11;;;;;;;3.50;2.30;;;17.50;99.90;;;;;;5091527;28;20615;-69
2023/07/31 01:12:38;;;;;;;2.63;2.03;;;17.50;99.90;;;;;;5090362;28;20490;-68
2023/07/31 01:15:04;;;;;;;7.30;2.60;;;17.50;99.90;;;;;;5088917;28;20469;-69
2023/07/31 01:17:30;;;;;;;4.53;2.90;;;17.50;99.90;;;;;;5091443;28;20928;-70
2023/07/31 01:19:59;;;;;;;6.37;2.90;;;17.50;99.90;;;;;;5094972;28;21138;-69
2023/07/31 01:23:02;;;;;;;2.67;1.73;;;17.50;99.90;;;;;;5095285;28;20223;-69
2023/07/31 01:25:31;;;;;;;3.73;2.43;;;17.50;99.90;;;;;;5095169;28;20404;-69
2023/07/31 01:28:04;;;;;;;3.30;2.27;;;17.50;99.90;;;;;;5093851;28;20439;-69
2023/07/31 01:30:35;;;;;;;5.10;2.30;;;17.50;99.90;;;;;;5090137;28;20439;-70
2023/07/31 01:33:06;;;;;;;5.43;2.60;;;17.50;99.90;;;;;;5086968;28;20414;-70
2023/07/31 01:35:33;;;;;;;5.83;4.00;;;17.40;99.90;;;;;;5094775;28;20427;-69
2023/07/31 01:37:58;;;;;;;4.07;2.90;;;17.40;99.90;;;;;;5095025;28;20808;-69
2023/07/31 01:40:24;;;;;;;4.93;2.17;;;17.40;99.90;;;;;;5093628;28;20435;-69
2023/07/31 01:42:49;;;;;;;11.03;2.87;;;17.40;99.90;;;;;;5094952;28;20642;-69
2023/07/31 01:45:15;;;;;;;4.73;2.70;;;17.50;99.90;;;;;;5093357;28;20169;-70
2023/07/31 01:47:41;;;;;;;8.10;2.67;;;17.50;99.90;;;;;;5092458;28;20681;-69
2023/07/31 01:50:07;;;;;;;4.47;2.10;;;17.50;99.90;;;;;;5085694;28;20681;-70
2023/07/31 01:52:32;;;;;;;4.57;2.20;;;17.50;99.90;;;;;;5092385;28;20170;-69
2023/07/31 01:54:58;;;;;;;5.27;2.23;;;17.60;99.90;;;;;;5094584;28;20169;-70
2023/07/31 01:57:23;;;;;;;4.13;2.30;;;17.60;99.90;;;;;;5094534;28;20154;-69
2023/07/31 01:59:49;;;;;;;4.00;2.20;;;17.60;99.90;;;;;;5094511;28;20197;-69
2023/07/31 02:02:14;;;;;;;5.43;2.07;;;17.70;99.90;;;;;;5087920;28;20648;-69
2023/07/31 02:04:40;;;;;;;7.13;3.63;;;17.70;99.90;;;;;;5083355;28;20235;-69
2023/07/31 02:07:06;;;;;;;2.33;1.73;;;17.70;99.90;;;;;;5093929;28;20173;-69
2023/07/31 02:09:32;;;;;;;5.23;2.93;;;17.70;99.90;;;;;;5094290;28;20530;-69
2023/07/31 02:11:58;;;;;;;3.87;2.20;;;17.70;99.90;;;;;;5093877;28;20487;-69
2023/07/31 02:14:24;;;;;;;4.37;2.83;;;17.70;99.90;;;;;;5093065;28;20182;-69
2023/07/31 02:16:50;;;;;;;3.47;2.87;;;17.70;99.90;;;;;;5093932;28;20711;-70
2023/07/31 02:19:15;;;;;;;4.90;2.93;;;17.80;99.90;;;;;;5078066;28;20452;-69
2023/07/31 02:21:41;;;;;;;4.77;2.30;;;17.80;99.90;;;;;;5074990;28;20178;-69
2023/07/31 02:24:06;;;;;;;5.00;2.53;;;17.70;99.90;;;;;;5092867;28;20677;-69
2023/07/31 02:26:32;;;;;;;4.27;2.93;;;17.70;99.90;;;;;;5093639;28;20238;-70
2023/07/31 02:28:57;;;;;;;5.03;2.33;;;17.70;99.90;;;;;;5093731;28;20595;-69
2023/07/31 02:31:23;;;;;;;8.40;2.80;;;17.70;99.90;;;;;;5093839;28;20198;-70
2023/07/31 02:33:48;;;;;;;4.07;2.50;;;17.70;99.90;;;;;;5093270;28;20230;-70
2023/07/31 02:36:14;;;;;;;5.43;2.90;;;17.70;99.90;;;;;;5087838;28;20177;-70
2023/07/31 02:38:40;;;;;;;2.97;2.33;;;17.70;99.90;;;;;;5093468;28;20242;-70
2023/07/31 02:41:05;;;;;;;7.00;3.70;;;17.70;99.90;;;;;;5093394;28;20431;-69
2023/07/31 02:43:31;;;;;;;8.30;2.53;;;17.70;99.90;;;;;;5093891;28;20618;-69
2023/07/31 02:45:57;;;;;;;6.00;2.40;;;17.70;99.90;;;;;;5091449;28;20200;-69
2023/07/31 02:48:22;;;;;;;5.90;3.93;;;17.70;99.90;;;;;;5093442;28;20668;-70
2023/07/31 02:50:48;;;;;;;5.10;3.10;;;17.80;99.90;;;;;;5093326;28;20193;-70
2023/07/31 02:53:13;;;;;;;7.47;2.80;;;17.80;99.90;;;;;;5093392;28;20587;-69
2023/07/31 02:55:40;;;;;;;6.10;3.20;;;17.80;99.90;;;;;;5093076;28;20166;-70
2023/07/31 02:58:06;;;;;;;8.40;3.63;;;17.80;99.90;;;;;;5093421;28;20207;-69
2023/07/31 03:00:31;;;;;;;7.97;2.53;;;17.90;99.90;;;;;;5085510;28;20436;-69
2023/07/31 03:02:57;;;;;;;3.20;2.03;;;17.90;99.90;;;;;;5076316;28;20699;-69
2023/07/31 03:05:22;;;;;;;3.10;1.97;;;17.90;99.90;;;;;;5092953;28;20192;-69
2023/07/31 03:07:48;;;;;;;6.67;2.67;;;17.90;99.90;;;;;;5093045;28;20678;-69
2023/07/31 03:10:14;;;;;;;4.07;2.60;;;17.90;99.90;;;;;;5091644;28;20280;-69
2023/07/31 03:12:40;;;;;;;4.63;3.00;;;18.00;99.90;;;;;;5090796;28;20634;-69
2023/07/31 03:15:06;;;;;;;4.40;3.03;;;18.00;99.90;;;;;;5092846;28;20165;-69
2023/07/31 03:17:32;;;;;;;7.57;3.43;;;18.00;99.90;;;;;;5089848;28;20429;-69
2023/07/31 03:19:57;;;;;;;6.67;2.90;;;18.00;99.90;;;;;;5092698;28;20991;-69
2023/07/31 03:22:23;;;;;;;3.57;2.60;;;18.00;99.90;;;;;;5092946;28;20181;-69
2023/07/31 03:24:48;;;;;;;10.40;3.43;;;18.00;99.90;;;;;;5092867;28;20166;-69
2023/07/31 03:27:14;;;;;;;7.63;3.47;;;18.00;99.90;;;;;;5092875;28;20173;-69
2023/07/31 03:29:39;;;;;;;9.13;3.80;;;18.00;99.90;;;;;;5092707;28;20189;-70
2023/07/31 03:32:05;;;;;;;4.93;2.83;;;18.00;99.90;;;;;;5084678;28;20189;-69
2023/07/31 03:34:31;;;;;;;4.80;2.80;;;18.00;99.90;;;;;;5080012;28;20231;-68
2023/07/31 03:36:58;;;;;;;9.67;3.40;;;18.00;99.90;;;;;;5092483;28;20848;-69
2023/07/31 03:39:23;;;;;;;6.67;2.37;;;18.00;99.90;;;;;;5092367;28;20455;-69
2023/07/31 03:41:49;;;;;;;6.73;3.23;;;18.00;99.90;;;;;;5091997;28;21058;-69
2023/07/31 03:44:14;;;;;;;6.00;2.90;;;17.90;99.90;;;;;;5089569;28;20167;-69
2023/07/31 03:46:40;;;;;;;6.70;3.60;;;17.90;99.90;;;;;;5084097;28;20170;-69
2023/07/31 03:49:05;;;;;;;8.00;3.70;;;17.90;99.90;;;;;;5080675;28;20407;-69
2023/07/31 03:51:31;;;;;;;8.30;3.67;;;17.90;99.90;;;;;;5071007;28;20221;-68
2023/07/31 03:53:56;;;;;;;9.10;3.07;;;17.90;99.90;;;;;;5072189;28;20174;-68
2023/07/31 03:56:22;;;;;;;6.83;3.83;;;17.90;99.90;;;;;;5072007;28;20628;-69
2023/07/31 03:58:47;;;;;;;4.60;2.70;;;17.90;99.90;;;;;;5072176;28;20245;-69
2023/07/31 04:01:13;;;;;;;5.33;2.80;;;17.90;99.90;;;;;;5092199;28;20238;-69
2023/07/31 04:03:39;;;;;;;4.70;3.23;;;17.90;99.90;;;;;;5092377;28;20264;-68
2023/07/31 04:06:04;;;;;;;4.07;3.10;;;17.90;99.90;;;;;;5092116;28;20165;-68
2023/07/31 04:08:30;;;;;;;6.43;3.53;;;17.90;99.90;;;;;;5092411;28;20185;-68
2023/07/31 04:10:55;;;;;;;6.27;2.73;;;17.90;99.90;;;;;;5092176;28;20259;-69
2023/07/31 04:13:22;;;;;;;3.33;3.03;;;17.80;99.90;;;;;;5090485;28;20199;-68
2023/07/31 04:15:49;;;;;;;3.50;2.50;;;17.80;99.90;;;;;;5092658;28;20218;-69
2023/07/31 04:18:15;;;;;;;5.03;3.30;;;17.80;99.90;;;;;;5092301;28;20967;-69
2023/07/31 04:20:40;;;;;;;6.30;2.53;;;17.80;99.90;;;;;;5090670;28;20432;-69
2023/07/31 04:23:06;;;;;;;4.57;3.33;;;17.90;99.90;;;;;;5090806;28;20276;-69
2023/07/31 04:25:31;;;;;;;6.17;3.40;;;17.90;99.90;;;;;;5092061;28;20184;-69
2023/07/31 04:27:57;;;;;;;4.30;3.30;;;17.90;99.90;;;;;;5083494;28;20205;-69
2023/07/31 04:30:23;;;;;;;6.10;3.30;;;17.90;99.90;;;;;;5090934;28;20197;-69
2023/07/31 04:32:49;;;;;;;5.37;2.97;;;17.90;99.90;;;;;;5090148;28;20298;-69
2023/07/31 04:35:14;;;;;;;9.07;3.40;;;17.90;99.90;;;;;;5091845;28;20456;-68
2023/07/31 04:37:41;;;;;;;6.20;2.90;;;17.90;99.90;;;;;;5090754;28;20178;-69
2023/07/31 04:40:08;;;;;;;3.67;2.80;;;17.90;99.90;;;;;;5091157;28;20189;-69
2023/07/31 04:42:34;;;;;;;5.37;3.27;;;17.90;99.90;;;;;;5091911;28;20399;-69
2023/07/31 04:45:00;;;;;;;16.20;3.87;;;18.00;99.90;;;;;;5091807;28;20403;-69
2023/07/31 04:47:25;;;;;;;5.50;3.20;;;18.00;99.90;;;;;;5090688;28;20507;-69
2023/07/31 04:49:50;;;;;;;12.93;5.77;;;18.10;99.90;;;;;;5091800;28;20200;-69
2023/07/31 04:52:16;;;;;;;7.17;3.70;;;18.10;99.90;;;;;;5090556;28;20227;-69
2023/07/31 04:54:42;;;;;;;6.90;3.50;;;18.20;99.90;;;;;;5092708;28;20695;-69
2023/07/31 04:57:07;;;;;;;3.37;2.60;;;18.30;99.90;;;;;;5095775;28;20195;-69
2023/07/31 04:59:33;;;;;;;8.27;3.60;;;18.30;99.90;;;;;;5095854;28;20189;-69
2023/07/31 05:01:58;;;;;;;4.83;3.10;;;18.30;99.90;;;;;;5094494;28;20176;-69
2023/07/31 05:04:24;;;;;;;6.27;2.80;;;18.40;99.90;;;;;;5094512;28;20166;-69
2023/07/31 05:06:50;;;;;;;4.67;3.07;;;18.40;99.90;;;;;;5095431;28;20630;-69
2023/07/31 05:09:15;;;;;;;5.17;3.83;;;18.40;99.90;;;;;;5080421;28;20226;-69
2023/07/31 05:11:42;;;;;;;8.87;3.60;;;18.50;99.90;;;;;;5084697;28;20481;-69
2023/07/31 05:14:08;;;;;;;7.23;2.83;;;18.50;99.90;;;;;;5095689;28;20170;-69
2023/07/31 05:16:34;;;;;;;9.77;3.00;;;18.60;99.90;;;;;;5095696;28;20434;-69
2023/07/31 05:18:59;;;;;;;3.43;2.93;;;18.70;99.90;;;;;;5094070;28;20236;-69
2023/07/31 05:21:25;;;;;;;4.10;3.00;;;18.80;99.90;;;;;;5093606;28;20170;-69
2023/07/31 05:23:50;;;;;;;5.70;3.30;;;18.80;99.90;;;;;;5084510;28;20170;-69
2023/07/31 05:26:16;;;;;;;7.30;2.80;;;18.80;99.90;;;;;;5095215;28;20165;-69
2023/07/31 05:28:41;;;;;;;5.33;2.40;;;18.80;99.90;;;;;;5093909;28;20208;-70
2023/07/31 05:31:07;;;;;;;3.73;2.80;;;18.90;99.90;;;;;;5093947;28;20236;-69
2023/07/31 05:33:33;;;;;;;3.53;2.80;;;18.80;99.90;;;;;;5095147;28;20162;-69
2023/07/31 05:35:58;;;;;;;4.67;3.60;;;18.80;99.90;;;;;;5094689;28;20682;-69
2023/07/31 05:38:24;;;;;;;3.37;2.90;;;18.80;99.90;;;;;;5094884;28;20192;-69
2023/07/31 05:40:49;;;;;;;4.40;2.90;;;18.90;99.90;;;;;;5093859;28;20219;-69
2023/07/31 05:43:15;;;;;;;3.50;2.50;;;18.80;99.90;;;;;;5095120;28;20162;-69
2023/07/31 05:45:42;;;;;;;5.77;2.90;;;18.80;99.90;;;;;;5094925;28;20161;-70
2023/07/31 05:48:07;;;;;;;3.17;2.87;;;18.90;99.90;;;;;;5093835;28;20177;-69
2023/07/31 05:50:33;;;;;;;3.20;2.47;;;18.80;99.90;;;;;;5090251;28;20465;-70
2023/07/31 05:52:58;;;;;;;3.53;2.33;;;18.80;99.90;;;;;;5075448;28;20189;-70
2023/07/31 05:55:26;;;;;;;6.00;2.90;;;18.70;99.90;;;;;;5074495;28;20185;-69
2023/07/31 05:57:52;;;;;;;4.00;2.90;;;18.70;99.90;;;;;;5073295;28;20169;-69
2023/07/31 06:00:18;;;;;;;6.20;3.27;;;18.70;99.90;;;;;;5074501;28;20511;-70
2023/07/31 06:02:43;;;;;;;3.10;2.60;;;18.70;99.90;;;;;;5074385;28;20893;-70
2023/07/31 06:05:10;;;;;;;4.77;2.97;;;18.70;99.90;;;;;;5086643;28;20177;-70
2023/07/31 06:07:35;;;;;;;4.50;4.10;;;18.70;99.90;;;;;;5093216;28;20181;-69
2023/07/31 06:10:05;;;;;;;3.10;2.30;;;18.60;99.90;;;;;;5093346;28;20454;-70
2023/07/31 06:12:32;;;;;;;3.30;2.60;;;18.60;99.90;;;;;;5094438;28;20195;-69
2023/07/31 06:14:57;;;;;;;2.90;2.33;;;18.60;99.90;;;;;;5094484;28;20899;-69
2023/07/31 06:17:23;;;;;;;4.20;3.10;;;18.50;99.90;;;;;;5091107;28;20493;-69
2023/07/31 06:19:49;;;;;;;2.80;2.10;;;18.50;99.90;;;;;;5090988;28;20236;-70
2023/07/31 06:22:15;;;;;;;4.10;2.80;;;18.50;99.90;;;;;;5094338;28;20593;-69
2023/07/31 06:24:40;;;;;;;4.07;2.30;;;18.60;99.90;;;;;;5093655;28;20400;-70
2023/07/31 06:27:06;;;;;;;3.90;2.63;;;18.70;99.90;;;;;;5093148;28;20701;-69
2023/07/31 06:29:32;;;;;;;5.20;2.73;;;18.70;99.90;;;;;;5093915;28;20246;-69
2023/07/31 06:31:58;;;;;;;5.93;3.10;;;18.70;99.90;;;;;;5091662;28;20205;-69
2023/07/31 06:34:23;;;;;;;4.60;2.50;;;18.60;99.90;;;;;;5094138;28;20170;-69
2023/07/31 06:36:49;;;;;;;4.53;2.67;;;18.70;99.90;;;;;;5092794;28;20170;-69
2023/07/31 06:39:14;;;;;;;3.17;2.80;;;18.70;99.90;;;;;;5092586;28;20197;-70
2023/07/31 06:41:40;;;;;;;5.00;2.63;;;18.80;99.90;;;;;;5092865;28;20252;-69
2023/07/31 06:44:05;;;;;;;3.10;2.50;;;18.90;99.90;;;;;;5092707;28;20166;-69
2023/07/31 06:46:31;;;;;;;4.43;2.53;;;19.00;99.90;;;;;;5091739;28;20166;-69
2023/07/31 06:48:56;;;;;;;3.50;2.73;;;19.20;99.90;;;;;;5092489;28;20258;-69
2023/07/31 06:51:22;;;;;;;3.10;2.10;;;19.40;99.90;;;;;;5093649;28;20491;-70
2023/07/31 06:53:47;;;;;;;4.40;2.53;;;19.50;99.90;;;;;;5093655;28;20169;-69
2023/07/31 06:56:13;;;;;;;7.90;3.63;;;19.70;99.90;;;;;;5092421;28;20597;-69
2023/07/31 06:58:39;;;;;;;5.27;3.10;;;19.90;99.90;;;;;;5092648;28;20193;-69
2023/07/31 07:01:04;;;;;;;11.07;2.80;;;19.90;99.90;;;;;;5093335;28;20666;-69
2023/07/31 07:03:30;;;;;;;6.67;3.10;;;20.00;99.90;;;;;;5093494;28;20460;-70
2023/07/31 07:05:56;;;;;;;3.70;3.00;;;20.10;99.90;;;;;;5092003;28;20170;-70
2023/07/31 07:08:21;;;;;;;4.20;2.90;;;20.20;99.90;;;;;;5093309;28;20553;-69
2023/07/31 07:10:47;;;;;;;5.73;2.70;;;20.20;99.90;;;;;;5091910;28;20194;-70
2023/07/31 07:13:13;;;;;;;5.10;2.80;;;20.20;99.90;;;;;;5090651;28;20174;-70
2023/07/31 07:15:39;;;;;;;6.80;3.40;;;20.20;99.90;;;;;;5083856;28;20181;-70
2023/07/31 07:18:04;;;;;;;6.10;2.33;;;20.20;99.90;;;;;;5089385;28;20932;-70
2023/07/31 07:20:30;;;;;;;4.90;2.53;;;20.20;99.90;;;;;;5091729;28;21004;-70
2023/07/31 07:22:55;;;;;;;6.53;4.17;;;20.20;99.90;;;;;;5092999;28;20516;-69
2023/07/31 07:25:21;;;;;;;8.30;3.40;;;20.10;99.90;;;;;;5093103;28;20202;-70
2023/07/31 07:27:46;;;;;;;4.20;3.00;;;19.90;99.90;;;;;;5091489;28;20237;-69
2023/07/31 07:30:14;;;;;;;5.13;2.83;;;19.90;99.90;;;;;;5091585;28;20189;-70
2023/07/31 07:32:39;;;;;;;6.00;3.17;;;19.90;99.90;;;;;;5092069;28;20177;-69
2023/07/31 07:35:06;;;;;;;10.13;2.67;;;19.70;99.90;;;;;;5092775;28;20478;-70
2023/07/31 07:37:31;;;;;;;3.90;2.10;;;19.60;99.90;;;;;;5093152;28;20246;-69
2023/07/31 07:39:57;;;;;;;3.60;2.13;;;19.50;99.90;;;;;;5091351;28;20543;-70
2023/07/31 07:42:22;;;;;;;6.23;2.77;;;19.40;99.90;;;;;;5084945;28;20253;-69
2023/07/31 07:44:48;;;;;;;4.37;2.20;;;19.50;99.90;;;;;;5091434;28;20661;-70
2023/07/31 07:47:14;;;;;;;3.23;2.50;;;19.50;99.90;;;;;;5091486;28;20189;-69
2023/07/31 07:49:39;;;;;;;5.10;3.20;;;19.50;99.90;;;;;;5092676;28;20195;-69
2023/07/31 07:52:05;;;;;;;3.93;2.47;;;19.50;99.90;;;;;;5092661;28;20169;-69
2023/07/31 07:54:32;;;;;;;5.70;2.47;;;19.50;99.90;;;;;;5085230;28;20185;-69
2023/07/31 07:56:57;;;;;;;2.50;2.20;;;19.40;99.90;;;;;;5092089;28;20165;-69
2023/07/31 07:59:23;;;;;;;3.80;2.10;;;19.30;99.90;;;;;;5092508;28;20886;-70
2023/07/31 08:01:49;;;;;;;4.30;2.40;;;19.20;99.90;;;;;;5092656;28;20176;-69
2023/07/31 08:04:14;;;;;;;2.83;2.60;;;19.20;99.90;;;;;;5092377;28;20173;-69
2023/07/31 08:06:40;;;;;;;2.87;2.50;;;19.30;99.90;;;;;;5090876;28;20214;-69
2023/07/31 08:09:06;;;;;;;2.90;1.93;;;19.40;99.90;;;;;;5083240;28;20177;-69
2023/07/31 08:11:32;;;;;;;3.20;1.90;;;19.50;99.90;;;;;;5084211;28;20196;-69
2023/07/31 08:13:57;;;;;;;4.03;3.07;;;19.60;99.90;;;;;;5092299;28;20176;-69
2023/07/31 08:16:23;;;;;;;3.00;2.10;;;19.60;99.90;;;;;;5092087;28;20904;-69
2023/07/31 08:18:48;;;;;;;7.97;2.33;;;19.70;99.90;;;;;;5090863;28;20202;-69
2023/07/31 08:21:14;;;;;;;2.43;1.67;;;19.80;99.90;;;;;;5090951;28;20293;-69
2023/07/31 08:23:40;;;;;;;3.30;2.20;;;19.80;99.90;;;;;;5089813;28;20566;-69
2023/07/31 08:26:06;;;;;;;4.03;2.03;;;19.70;99.90;;;;;;5092022;28;20395;-69
2023/07/31 08:28:31;;;;;;;5.67;2.60;;;19.80;99.90;;;;;;5095755;28;20570;-69
2023/07/31 08:30:57;;;;;;;3.60;2.30;;;19.80;99.90;;;;;;5094392;28;20607;-67
2023/07/31 08:33:22;;;;;;;2.43;1.80;;;19.80;99.90;;;;;;5095380;28;20195;-66
2023/07/31 08:35:48;;;;;;;4.47;2.57;;;19.80;99.90;;;;;;5094515;28;20229;-66
2023/07/31 08:38:14;;;;;;;3.67;2.67;;;19.80;99.90;;;;;;5094050;28;20276;-66
2023/07/31 08:40:40;;;;;;;3.10;2.27;;;19.90;99.90;;;;;;5094630;28;20192;-66
2023/07/31 08:43:06;;;;;;;2.97;1.80;;;19.90;99.90;;;;;;5095965;28;20162;-66
2023/07/31 08:45:33;;;;;;;3.67;2.23;;;19.90;99.90;;;;;;5094444;28;20439;-66
2023/07/31 08:47:59;;;;;;;4.80;2.17;;;19.90;99.90;;;;;;5095787;28;20403;-66
2023/07/31 08:50:24;;;;;;;6.50;2.70;;;20.00;99.90;;;;;;5093626;28;20476;-66
2023/07/31 08:52:51;;;;;;;5.27;2.50;;;20.00;99.90;;;;;;5095580;28;20407;-66
2023/07/31 08:55:17;;;;;;;4.03;2.20;;;20.00;99.90;;;;;;5095458;28;20223;-66
2023/07/31 08:57:43;;;;;;;3.17;2.40;;;20.20;99.90;;;;;;5095564;28;20474;-67
2023/07/31 09:00:10;;;;;;;1.73;1.50;;;20.30;99.90;;;;;;5094198;28;20534;-66
2023/07/31 09:02:51;;;;;;;4.10;2.27;;;20.40;99.90;;;;;;5093124;28;20769;-67
2023/07/31 09:05:17;;;;;;;3.23;1.97;;;20.50;99.90;;;;;;5094699;28;20502;-67
2023/07/31 09:07:46;;;;;;;3.53;1.77;;;20.40;99.90;;;;;;5091599;28;20443;-67
2023/07/31 09:10:11;;;;;;;6.70;2.30;;;20.50;99.90;;;;;;5093770;28;20442;-67
2023/07/31 09:12:38;;;;;;;3.30;1.97;;;21.00;99.90;;;;;;5095225;28;20795;-66
2023/07/31 09:15:05;;;;;;;2.07;1.70;;;21.00;99.90;;;;;;5095068;28;20174;-66
2023/07/31 09:17:36;;;;;;;3.40;2.10;;;20.70;99.90;;;;;;5093926;28;20407;-66
2023/07/31 09:20:18;;;;;;;3.20;1.80;;;20.80;99.90;;;;;;5095115;28;20446;-67
2023/07/31 09:22:44;;;;;;;2.70;2.30;;;21.00;99.90;;;;;;5093785;28;20407;-66
2023/07/31 09:25:24;;;;;;;2.43;1.57;;;21.20;99.90;;;;;;5093712;28;21005;-66
2023/07/31 09:28:11;;;;;;;2.60;1.77;;;21.30;99.90;;;;;;5094970;28;20431;-66
2023/07/31 09:30:48;;;;;;;3.13;1.80;;;21.50;99.90;;;;;;5094918;28;20414;-67
2023/07/31 09:33:14;;;;;;;4.03;2.13;;;22.00;99.90;;;;;;5093530;28;20406;-66
2023/07/31 09:35:42;;;;;;;2.40;1.70;;;22.80;99.90;;;;;;5093343;28;20404;-66
2023/07/31 09:38:15;;;;;;;3.20;2.20;;;23.20;99.90;;;;;;5094423;28;20185;-66
2023/07/31 09:40:43;;;;;;;2.27;1.70;;;23.70;99.90;;;;;;5092334;28;20443;-66
2023/07/31 09:43:10;;;;;;;2.60;2.03;;;24.10;99.90;;;;;;5094832;28;20494;-66
2023/07/31 09:45:41;;;;;;;2.40;1.90;;;23.90;99.90;;;;;;5094504;28;20764;-66
2023/07/31 09:48:11;;;;;;;4.00;2.00;;;23.60;99.90;;;;;;5093282;28;20411;-65
2023/07/31 09:50:39;;;;;;;3.90;2.77;;;23.20;99.90;;;;;;5094572;28;20446;-66
2023/07/31 09:53:06;;;;;;;3.30;2.20;;;22.90;99.90;;;;;;5093151;28;20430;-66
2023/07/31 09:55:32;;;;;;;6.53;1.80;;;22.60;99.90;;;;;;5090978;28;20424;-66
2023/07/31 09:57:58;;;;;;;3.23;2.30;;;22.50;99.90;;;;;;5093190;28;20404;-66
2023/07/31 10:00:26;;;;;;;1.77;1.60;;;22.30;99.90;;;;;;5094417;28;20177;-67
2023/07/31 10:02:53;;;;;;;2.53;1.73;;;22.30;99.90;;;;;;5093125;28;20204;-66
2023/07/31 10:05:20;;;;;;;2.63;1.90;;;22.30;99.90;;;;;;5093178;28;20772;-65
2023/07/31 10:07:53;;;;;;;3.77;1.90;;;22.30;99.90;;;;;;5090859;28;20443;-67
2023/07/31 10:10:20;;;;;;;6.30;1.80;;;22.40;99.90;;;;;;5090897;28;20447;-67
2023/07/31 10:12:48;;;;;;;2.30;2.00;;;22.40;99.90;;;;;;5094017;28;20827;-66
2023/07/31 10:15:14;;;;;;;4.40;2.30;;;22.20;99.90;;;;;;5091446;28;20497;-67
2023/07/31 10:17:41;;;;;;;3.30;2.20;;;22.00;99.90;;;;;;5094006;28;20423;-66
2023/07/31 10:20:08;;;;;;;2.00;1.60;;;21.90;99.90;;;;;;5092358;28;20550;-67
2023/07/31 10:22:34;;;;;;;2.10;1.87;;;22.10;99.90;;;;;;5091880;28;20427;-66
2023/07/31 10:25:00;;;;;;;1.93;1.70;;;22.20;99.90;;;;;;5106234;28;20418;-67
2023/07/31 10:27:26;;;;;;;2.20;1.87;;;22.30;99.90;;;;;;5114407;28;21036;-67
2023/07/31 10:29:54;;;;;;;3.43;1.60;;;22.30;99.90;;;;;;5108085;28;20447;-66
2023/07/31 10:32:21;;;;;;;2.80;2.47;;;22.40;99.90;;;;;;5093350;28;20420;-66
2023/07/31 10:34:48;;;;;;;3.47;1.90;;;22.30;99.90;;;;;;5093754;28;20403;-67
2023/07/31 10:37:25;;;;;;;4.30;1.50;;;22.20;99.90;;;;;;5093440;28;20437;-65
2023/07/31 10:40:06;;;;;;;2.20;1.67;;;22.00;99.90;;;;;;5110218;28;20454;-66
2023/07/31 10:42:34;;;;;;;2.13;1.93;;;21.90;99.90;;;;;;5113865;28;20451;-66
2023/07/31 10:45:05;;;;;;;4.47;2.20;;;21.80;99.90;;;;;;5096226;28;20412;-66
2023/07/31 10:47:31;;;;;;;2.23;1.90;;;21.70;99.90;;;;;;5091514;28;20497;-66
2023/07/31 10:50:19;;;;;;;2.70;1.67;;;21.70;99.90;;;;;;5092772;28;20533;-67
2023/07/31 10:52:52;;;;;;;2.20;1.80;;;21.80;99.90;;;;;;5093376;28;20428;-66
2023/07/31 10:55:21;;;;;;;5.87;1.80;;;21.80;99.90;;;;;;5111685;28;20419;-66
2023/07/31 10:57:50;;;;;;;1.73;1.30;;;21.90;99.90;;;;;;5112686;28;20419;-66
2023/07/31 11:00:25;;;;;;;1.80;1.40;;;21.80;99.90;;;;;;5099921;28;20844;-67
2023/07/31 11:03:00;;;;;;;1.23;0.97;;;21.80;99.90;;;;;;5092265;28;20464;-66
2023/07/31 11:05:51;;;;;;;2.80;1.43;;;21.70;99.90;;;;;;5112904;28;20434;-66
2023/07/31 11:08:24;;;;;;;2.60;1.40;;;21.60;99.90;;;;;;5113468;28;21054;-67
2023/07/31 11:11:02;;;;;;;2.00;1.20;;;21.70;99.90;;;;;;5114128;28;20451;-68
2023/07/31 11:13:41;;;;;;;1.40;1.30;;;21.80;99.90;;;;;;5114947;28;20456;-68
2023/07/31 11:16:08;;;;;;;1.27;1.00;;;22.10;99.90;;;;;;5090802;28;20415;-68
2023/07/31 11:18:33;;;;;;;1.60;0.90;;;22.50;99.90;;;;;;5092620;28;20444;-68
2023/07/31 11:20:59;;;;;;;3.20;1.27;;;22.70;99.90;;;;;;5092899;28;20507;-68
2023/07/31 11:23:24;;;;;;;1.30;1.00;;;23.00;99.90;;;;;;5091637;28;20179;-67
2023/07/31 11:25:50;;;;;;;1.10;1.00;;;23.80;99.90;;;;;;5092358;28;20162;-68
2023/07/31 11:28:17;;;;;;;1.13;1.00;;;24.70;99.90;;;;;;5091236;28;20267;-68
2023/07/31 11:30:44;;;;;;;2.87;1.20;;;24.80;99.90;;;;;;5092836;28;20420;-68
2023/07/31 11:33:12;;;;;;;1.40;0.90;;;24.80;99.90;;;;;;5090196;28;20427;-68
2023/07/31 11:35:46;;;;;;;1.50;0.87;;;24.70;99.90;;;;;;5092314;28;20396;-68
2023/07/31 11:38:27;;;;;;;1.30;0.90;;;24.70;99.90;;;;;;5092568;28;20486;-68
2023/07/31 11:41:02;;;;;;;1.37;0.90;;;24.50;99.90;;;;;;5092348;28;20912;-68
2023/07/31 11:43:28;;;;;;;1.00;0.77;;;24.20;99.90;;;;;;5084703;28;20459;-68
2023/07/31 11:45:57;;;;;;;1.70;1.00;;;24.60;99.90;;;;;;5090226;28;20450;-68
2023/07/31 11:48:33;;;;;;;1.00;0.70;;;25.10;99.90;;;;;;5092556;28;20450;-68
2023/07/31 11:51:07;;;;;;;1.20;0.80;;;25.30;99.90;;;;;;5092282;28;20953;-68
2023/07/31 11:53:41;;;;;;;2.20;0.90;;;25.00;99.90;;;;;;5091513;28;20409;-68
2023/07/31 11:56:09;;;;;;;1.40;1.20;;;24.60;99.90;;;;;;5091374;28;20442;-68
2023/07/31 11:58:36;;;;;;;1.10;1.00;;;24.10;99.90;;;;;;5091989;28;20455;-68
2023/07/31 12:01:02;;;;;;;2.30;0.90;;;23.70;99.90;;;;;;5092979;28;20431;-68
2023/07/31 12:03:28;;;;;;;1.27;1.07;;;23.40;99.90;;;;;;5093324;28;20399;-68
2023/07/31 12:05:54;;;;;;;1.20;1.00;;;23.20;99.90;;;;;;5091190;28;20412;-68
2023/07/31 12:08:22;;;;;;;1.57;1.20;;;22.80;99.90;;;;;;5092235;28;20464;-68
2023/07/31 12:10:51;;;;;;;1.97;1.73;;;22.60;99.90;;;;;;5093151;28;20795;-68
2023/07/31 12:13:24;;;;;;;4.33;3.93;;;22.50;99.90;;;;;;5090878;28;20400;-68
2023/07/31 12:15:58;;;;;;;1.83;1.40;;;22.40;99.90;;;;;;5080264;28;20971;-68
2023/07/31 12:18:26;;;;;;;2.00;1.30;;;22.30;99.90;;;;;;5089406;28;20458;-68
2023/07/31 12:21:01;;;;;;;1.70;1.60;;;22.10;99.90;;;;;;5082372;28;21029;-68
2023/07/31 12:23:29;;;;;;;1.93;1.83;;;22.10;99.90;;;;;;5091131;28;20399;-67
2023/07/31 12:26:15;;;;;;;2.30;1.97;;;21.90;99.90;;;;;;5090489;28;20494;-68
2023/07/31 12:28:45;;;;;;;12.37;9.50;;;22.00;99.90;;;;;;5090461;28;20407;-67
2023/07/31 12:31:19;;;;;;;2.70;2.47;;;22.00;99.90;;;;;;5090683;28;20438;-67
2023/07/31 12:33:46;;;;;;;14.23;8.90;;;22.20;99.90;;;;;;5089604;28;20431;-67
2023/07/31 12:36:15;;;;;;;2.07;1.87;;;22.20;99.90;;;;;;5091654;28;20487;-67
2023/07/31 12:38:41;;;;;;;3.90;2.00;;;22.20;99.90;;;;;;5090725;28;21064;-67
2023/07/31 12:41:07;;;;;;;4.03;2.03;;;22.40;99.90;;;;;;5091664;28;20423;-68
2023/07/31 12:43:37;;;;;;;1.90;1.70;;;22.50;99.90;;;;;;5090727;28;20408;-68
2023/07/31 12:46:03;;;;;;;2.60;1.93;;;22.50;99.90;;;;;;5091348;28;20396;-67